sensor_id;sensor_type;location;lat;lon;timestamp;P1;durP1;ratioP1;P2;durP2;ratioP2
22425;SDS011;11380;50.822;15.790;2022-09-30T00:00:53;74.77;;;66.27;;
22425;SDS011;11380;50.822;15.790;2022-09-30T00:06:02;73.30;;;61.83;;
22425;SDS011;11380;50.822;15.790;2022-09-30T00:11:12;55.83;;;50.27;;
22425;SDS011;11380;50.822;15.790;2022-09-30T00:16:20;47.23;;;43.73;;
22425;SDS011;11380;50.822;15.790;2022-09-30T00:21:26;48.90;;;44.87;;
22425;SDS011;11380;50.822;15.790;2022-09-30T00:26:32;50.33;;;46.13;;
22425;SDS011;11380;50.822;15.790;2022-09-30T00:31:39;47.60;;;43.97;;
22425;SDS011;11380;50.822;15.790;2022-09-30T00:36:46;47.07;;;43.60;;
22425;SDS011;11380;50.822;15.790;2022-09-30T00:41:56;47.43;;;43.80;;
22425;SDS011;11380;50.822;15.790;2022-09-30T00:47:03;46.63;;;43.03;;
22425;SDS011;11380;50.822;15.790;2022-09-30T00:52:11;47.03;;;43.37;;
22425;SDS011;11380;50.822;15.790;2022-09-30T00:57:17;47.93;;;44.23;;
22425;SDS011;11380;50.822;15.790;2022-09-30T01:02:22;49.00;;;45.10;;
22425;SDS011;11380;50.822;15.790;2022-09-30T01:07:27;46.57;;;42.90;;
22425;SDS011;11380;50.822;15.790;2022-09-30T01:12:34;46.93;;;43.43;;
22425;SDS011;11380;50.822;15.790;2022-09-30T01:17:51;47.30;;;43.70;;
22425;SDS011;11380;50.822;15.790;2022-09-30T01:28:10;48.70;;;44.73;;
22425;SDS011;11380;50.822;15.790;2022-09-30T01:44:28;47.73;;;43.83;;
22425;SDS011;11380;50.822;15.790;2022-09-30T01:49:48;46.47;;;43.07;;
22425;SDS011;11380;50.822;15.790;2022-09-30T01:55:04;59.83;;;53.07;;
22425;SDS011;11380;50.822;15.790;2022-09-30T02:00:10;50.20;;;45.67;;
22425;SDS011;11380;50.822;15.790;2022-09-30T02:05:39;47.57;;;43.67;;
22425;SDS011;11380;50.822;15.790;2022-09-30T02:10:50;46.40;;;43.00;;
22425;SDS011;11380;50.822;15.790;2022-09-30T02:16:00;46.70;;;43.20;;
22425;SDS011;11380;50.822;15.790;2022-09-30T02:21:09;45.63;;;42.38;;
22425;SDS011;11380;50.822;15.790;2022-09-30T02:26:21;45.48;;;42.17;;
22425;SDS011;11380;50.822;15.790;2022-09-30T02:31:30;45.43;;;42.23;;
22425;SDS011;11380;50.822;15.790;2022-09-30T02:36:39;45.53;;;42.03;;
22425;SDS011;11380;50.822;15.790;2022-09-30T02:41:50;45.13;;;41.97;;
22425;SDS011;11380;50.822;15.790;2022-09-30T02:52:55;45.10;;;41.63;;
22425;SDS011;11380;50.822;15.790;2022-09-30T02:58:08;45.97;;;42.67;;
22425;SDS011;11380;50.822;15.790;2022-09-30T03:03:33;47.37;;;43.63;;
22425;SDS011;11380;50.822;15.790;2022-09-30T03:08:41;48.75;;;44.88;;
22425;SDS011;11380;50.822;15.790;2022-09-30T03:30:04;47.13;;;43.53;;
22425;SDS011;11380;50.822;15.790;2022-09-30T03:35:15;48.37;;;44.33;;
22425;SDS011;11380;50.822;15.790;2022-09-30T03:40:42;48.83;;;44.87;;
22425;SDS011;11380;50.822;15.790;2022-09-30T03:45:57;48.40;;;44.63;;
22425;SDS011;11380;50.822;15.790;2022-09-30T03:51:09;48.45;;;44.75;;
22425;SDS011;11380;50.822;15.790;2022-09-30T03:56:22;47.77;;;43.80;;
22425;SDS011;11380;50.822;15.790;2022-09-30T04:01:30;50.87;;;46.47;;
22425;SDS011;11380;50.822;15.790;2022-09-30T04:06:36;51.15;;;45.95;;
22425;SDS011;11380;50.822;15.790;2022-09-30T04:11:41;49.60;;;45.53;;
22425;SDS011;11380;50.822;15.790;2022-09-30T04:16:46;48.47;;;44.40;;
22425;SDS011;11380;50.822;15.790;2022-09-30T04:21:53;49.87;;;45.67;;
22425;SDS011;11380;50.822;15.790;2022-09-30T04:26:59;48.90;;;44.97;;
22425;SDS011;11380;50.822;15.790;2022-09-30T04:32:04;48.83;;;44.77;;
22425;SDS011;11380;50.822;15.790;2022-09-30T04:37:10;50.07;;;45.80;;
22425;SDS011;11380;50.822;15.790;2022-09-30T04:42:17;48.63;;;44.67;;
22425;SDS011;11380;50.822;15.790;2022-09-30T04:47:22;60.60;;;52.57;;
22425;SDS011;11380;50.822;15.790;2022-09-30T04:52:27;50.17;;;45.98;;
22425;SDS011;11380;50.822;15.790;2022-09-30T04:57:33;52.97;;;48.17;;
22425;SDS011;11380;50.822;15.790;2022-09-30T05:02:38;50.47;;;46.00;;
22425;SDS011;11380;50.822;15.790;2022-09-30T05:07:47;50.27;;;45.90;;
22425;SDS011;11380;50.822;15.790;2022-09-30T05:12:53;50.67;;;46.20;;
22425;SDS011;11380;50.822;15.790;2022-09-30T05:17:59;33.80;;;31.30;;
22425;SDS011;11380;50.822;15.790;2022-09-30T05:23:04;45.07;;;41.90;;
22425;SDS011;11380;50.822;15.790;2022-09-30T05:28:09;47.10;;;43.57;;
22425;SDS011;11380;50.822;15.790;2022-09-30T05:33:15;45.53;;;42.30;;
22425;SDS011;11380;50.822;15.790;2022-09-30T05:38:20;48.10;;;44.40;;
22425;SDS011;11380;50.822;15.790;2022-09-30T05:43:27;55.00;;;49.45;;
22425;SDS011;11380;50.822;15.790;2022-09-30T05:48:34;56.23;;;50.45;;
22425;SDS011;11380;50.822;15.790;2022-09-30T05:53:40;52.13;;;47.63;;
22425;SDS011;11380;50.822;15.790;2022-09-30T05:58:45;57.37;;;51.77;;
22425;SDS011;11380;50.822;15.790;2022-09-30T06:03:50;66.17;;;57.30;;
22425;SDS011;11380;50.822;15.790;2022-09-30T06:08:57;60.15;;;53.73;;
22425;SDS011;11380;50.822;15.790;2022-09-30T06:14:02;57.23;;;51.67;;
22425;SDS011;11380;50.822;15.790;2022-09-30T06:19:09;66.87;;;56.25;;
22425;SDS011;11380;50.822;15.790;2022-09-30T06:24:15;58.80;;;52.63;;
22425;SDS011;11380;50.822;15.790;2022-09-30T06:29:20;55.13;;;50.30;;
22425;SDS011;11380;50.822;15.790;2022-09-30T06:34:25;54.75;;;49.85;;
22425;SDS011;11380;50.822;15.790;2022-09-30T06:39:31;71.97;;;58.33;;
22425;SDS011;11380;50.822;15.790;2022-09-30T06:44:37;64.13;;;57.43;;
22425;SDS011;11380;50.822;15.790;2022-09-30T06:49:45;56.17;;;50.40;;
22425;SDS011;11380;50.822;15.790;2022-09-30T06:54:52;55.63;;;50.53;;
22425;SDS011;11380;50.822;15.790;2022-09-30T07:00:00;55.70;;;50.70;;
22425;SDS011;11380;50.822;15.790;2022-09-30T07:05:07;55.50;;;50.43;;
22425;SDS011;11380;50.822;15.790;2022-09-30T07:10:12;54.97;;;50.10;;
22425;SDS011;11380;50.822;15.790;2022-09-30T07:15:18;57.23;;;52.05;;
22425;SDS011;11380;50.822;15.790;2022-09-30T07:20:26;63.33;;;56.87;;
22425;SDS011;11380;50.822;15.790;2022-09-30T07:25:31;62.80;;;55.87;;
22425;SDS011;11380;50.822;15.790;2022-09-30T07:30:40;62.50;;;56.30;;
22425;SDS011;11380;50.822;15.790;2022-09-30T07:35:49;65.43;;;58.70;;
22425;SDS011;11380;50.822;15.790;2022-09-30T07:40:59;61.47;;;55.33;;
22425;SDS011;11380;50.822;15.790;2022-09-30T07:46:07;54.73;;;49.50;;
22425;SDS011;11380;50.822;15.790;2022-09-30T07:51:35;55.30;;;50.50;;
22425;SDS011;11380;50.822;15.790;2022-09-30T07:56:26;55.43;;;49.70;;
22425;SDS011;11380;50.822;15.790;2022-09-30T08:01:34;60.93;;;54.53;;
22425;SDS011;11380;50.822;15.790;2022-09-30T08:06:40;61.07;;;55.10;;
22425;SDS011;11380;50.822;15.790;2022-09-30T08:11:48;59.30;;;53.60;;
22425;SDS011;11380;50.822;15.790;2022-09-30T08:16:53;57.87;;;52.07;;
22425;SDS011;11380;50.822;15.790;2022-09-30T08:22:00;58.47;;;52.87;;
22425;SDS011;11380;50.822;15.790;2022-09-30T08:27:06;59.00;;;53.40;;
22425;SDS011;11380;50.822;15.790;2022-09-30T08:32:11;64.10;;;54.70;;
22425;SDS011;11380;50.822;15.790;2022-09-30T08:37:17;58.40;;;53.27;;
22425;SDS011;11380;50.822;15.790;2022-09-30T08:47:57;55.60;;;50.70;;
22425;SDS011;11380;50.822;15.790;2022-09-30T08:53:28;54.43;;;49.63;;
22425;SDS011;11380;50.822;15.790;2022-09-30T08:58:36;53.23;;;48.63;;
22425;SDS011;11380;50.822;15.790;2022-09-30T09:03:43;53.37;;;48.77;;
22425;SDS011;11380;50.822;15.790;2022-09-30T09:09:04;55.10;;;50.30;;
22425;SDS011;11380;50.822;15.790;2022-09-30T09:14:15;55.78;;;50.65;;
22425;SDS011;11380;50.822;15.790;2022-09-30T09:19:32;55.50;;;50.70;;
22425;SDS011;11380;50.822;15.790;2022-09-30T09:24:36;56.00;;;51.00;;
22425;SDS011;11380;50.822;15.790;2022-09-30T09:29:52;56.40;;;51.26;;
22425;SDS011;11380;50.822;15.790;2022-09-30T09:35:14;56.97;;;51.77;;
22425;SDS011;11380;50.822;15.790;2022-09-30T09:40:24;53.80;;;49.03;;
22425;SDS011;11380;50.822;15.790;2022-09-30T09:45:54;54.20;;;49.57;;
22425;SDS011;11380;50.822;15.790;2022-09-30T09:51:02;55.13;;;50.07;;
22425;SDS011;11380;50.822;15.790;2022-09-30T09:56:25;56.60;;;51.50;;
22425;SDS011;11380;50.822;15.790;2022-09-30T10:01:34;57.57;;;52.17;;
22425;SDS011;11380;50.822;15.790;2022-09-30T10:06:46;56.20;;;51.07;;
22425;SDS011;11380;50.822;15.790;2022-09-30T10:17:21;56.07;;;51.07;;
22425;SDS011;11380;50.822;15.790;2022-09-30T10:22:35;57.20;;;51.90;;
22425;SDS011;11380;50.822;15.790;2022-09-30T10:27:33;55.40;;;50.40;;
22425;SDS011;11380;50.822;15.790;2022-09-30T10:32:39;56.67;;;51.50;;
22425;SDS011;11380;50.822;15.790;2022-09-30T10:37:50;55.77;;;50.43;;
22425;SDS011;11380;50.822;15.790;2022-09-30T10:42:58;55.33;;;50.40;;
22425;SDS011;11380;50.822;15.790;2022-09-30T10:48:04;56.40;;;51.20;;
22425;SDS011;11380;50.822;15.790;2022-09-30T10:53:13;57.27;;;51.77;;
22425;SDS011;11380;50.822;15.790;2022-09-30T10:58:29;56.50;;;51.30;;
22425;SDS011;11380;50.822;15.790;2022-09-30T11:09:38;54.93;;;49.93;;
22425;SDS011;11380;50.822;15.790;2022-09-30T11:14:46;54.57;;;49.73;;
22425;SDS011;11380;50.822;15.790;2022-09-30T11:19:58;54.70;;;49.77;;
22425;SDS011;11380;50.822;15.790;2022-09-30T11:25:16;54.00;;;49.30;;
22425;SDS011;11380;50.822;15.790;2022-09-30T11:30:35;54.80;;;49.90;;
22425;SDS011;11380;50.822;15.790;2022-09-30T11:41:12;56.80;;;51.60;;
22425;SDS011;11380;50.822;15.790;2022-09-30T11:46:24;55.00;;;50.10;;
22425;SDS011;11380;50.822;15.790;2022-09-30T11:51:44;55.10;;;50.10;;
22425;SDS011;11380;50.822;15.790;2022-09-30T11:56:52;54.20;;;49.50;;
22425;SDS011;11380;50.822;15.790;2022-09-30T12:01:58;53.70;;;48.97;;
22425;SDS011;11380;50.822;15.790;2022-09-30T12:12:27;54.23;;;49.43;;
22425;SDS011;11380;50.822;15.790;2022-09-30T12:17:40;53.50;;;48.70;;
22425;SDS011;11380;50.822;15.790;2022-09-30T12:22:47;53.97;;;49.23;;
22425;SDS011;11380;50.822;15.790;2022-09-30T12:39:42;53.53;;;48.83;;
22425;SDS011;11380;50.822;15.790;2022-09-30T12:50:33;53.40;;;48.70;;
22425;SDS011;11380;50.822;15.790;2022-09-30T12:55:41;54.67;;;49.30;;
22425;SDS011;11380;50.822;15.790;2022-09-30T13:01:05;53.02;;;48.42;;
22425;SDS011;11380;50.822;15.790;2022-09-30T13:06:14;53.37;;;48.77;;
22425;SDS011;11380;50.822;15.790;2022-09-30T13:22:53;54.63;;;49.63;;
22425;SDS011;11380;50.822;15.790;2022-09-30T13:48:37;53.90;;;49.20;;
22425;SDS011;11380;50.822;15.790;2022-09-30T13:53:46;53.57;;;48.87;;
22425;SDS011;11380;50.822;15.790;2022-09-30T13:59:07;53.93;;;48.57;;
22425;SDS011;11380;50.822;15.790;2022-09-30T14:04:35;53.10;;;48.60;;
22425;SDS011;11380;50.822;15.790;2022-09-30T14:15:25;52.93;;;48.40;;
22425;SDS011;11380;50.822;15.790;2022-09-30T14:21:09;53.03;;;48.30;;
22425;SDS011;11380;50.822;15.790;2022-09-30T14:26:15;52.83;;;48.33;;
22425;SDS011;11380;50.822;15.790;2022-09-30T14:31:20;53.27;;;48.47;;
22425;SDS011;11380;50.822;15.790;2022-09-30T14:36:27;53.77;;;49.17;;
22425;SDS011;11380;50.822;15.790;2022-09-30T14:41:53;53.83;;;49.23;;
22425;SDS011;11380;50.822;15.790;2022-09-30T14:47:03;53.97;;;49.17;;
22425;SDS011;11380;50.822;15.790;2022-09-30T14:52:56;53.85;;;49.15;;
22425;SDS011;11380;50.822;15.790;2022-09-30T14:57:35;53.30;;;48.70;;
22425;SDS011;11380;50.822;15.790;2022-09-30T15:02:42;53.48;;;48.87;;
22425;SDS011;11380;50.822;15.790;2022-09-30T15:07:50;53.47;;;48.97;;
22425;SDS011;11380;50.822;15.790;2022-09-30T15:12:57;54.00;;;49.30;;
22425;SDS011;11380;50.822;15.790;2022-09-30T15:23:34;55.10;;;50.20;;
22425;SDS011;11380;50.822;15.790;2022-09-30T15:28:42;60.70;;;54.33;;
22425;SDS011;11380;50.822;15.790;2022-09-30T15:33:47;62.33;;;56.20;;
22425;SDS011;11380;50.822;15.790;2022-09-30T15:38:54;90.97;;;74.82;;
22425;SDS011;11380;50.822;15.790;2022-09-30T15:43:59;66.97;;;58.70;;
22425;SDS011;11380;50.822;15.790;2022-09-30T15:54:34;59.40;;;53.60;;
22425;SDS011;11380;50.822;15.790;2022-09-30T16:00:01;57.57;;;52.27;;
22425;SDS011;11380;50.822;15.790;2022-09-30T16:05:06;59.47;;;53.77;;
22425;SDS011;11380;50.822;15.790;2022-09-30T16:10:17;57.17;;;51.67;;
22425;SDS011;11380;50.822;15.790;2022-09-30T16:15:25;61.83;;;55.83;;
22425;SDS011;11380;50.822;15.790;2022-09-30T16:25:37;56.35;;;51.25;;
22425;SDS011;11380;50.822;15.790;2022-09-30T16:30:48;55.87;;;50.93;;
22425;SDS011;11380;50.822;15.790;2022-09-30T16:35:53;55.80;;;50.70;;
22425;SDS011;11380;50.822;15.790;2022-09-30T16:40:58;56.17;;;51.10;;
22425;SDS011;11380;50.822;15.790;2022-09-30T16:46:07;58.33;;;52.73;;
22425;SDS011;11380;50.822;15.790;2022-09-30T16:51:14;58.17;;;52.80;;
22425;SDS011;11380;50.822;15.790;2022-09-30T16:56:20;56.83;;;51.63;;
22425;SDS011;11380;50.822;15.790;2022-09-30T17:01:26;58.60;;;52.90;;
22425;SDS011;11380;50.822;15.790;2022-09-30T17:06:37;56.73;;;51.43;;
22425;SDS011;11380;50.822;15.790;2022-09-30T17:11:42;57.73;;;52.47;;
22425;SDS011;11380;50.822;15.790;2022-09-30T17:16:48;62.47;;;56.37;;
22425;SDS011;11380;50.822;15.790;2022-09-30T17:21:55;60.40;;;54.50;;
22425;SDS011;11380;50.822;15.790;2022-09-30T17:27:01;62.17;;;56.27;;
22425;SDS011;11380;50.822;15.790;2022-09-30T17:32:06;60.00;;;54.23;;
22425;SDS011;11380;50.822;15.790;2022-09-30T17:37:14;61.67;;;55.13;;
22425;SDS011;11380;50.822;15.790;2022-09-30T17:42:19;61.07;;;55.13;;
22425;SDS011;11380;50.822;15.790;2022-09-30T17:47:42;59.77;;;53.83;;
22425;SDS011;11380;50.822;15.790;2022-09-30T17:52:51;57.67;;;52.37;;
22425;SDS011;11380;50.822;15.790;2022-09-30T17:57:59;58.00;;;52.53;;
22425;SDS011;11380;50.822;15.790;2022-09-30T18:03:08;58.86;;;53.48;;
22425;SDS011;11380;50.822;15.790;2022-09-30T18:08:17;61.02;;;54.93;;
22425;SDS011;11380;50.822;15.790;2022-09-30T18:13:31;60.10;;;54.53;;
22425;SDS011;11380;50.822;15.790;2022-09-30T18:23:40;60.70;;;54.83;;
22425;SDS011;11380;50.822;15.790;2022-09-30T18:28:45;59.70;;;54.10;;
22425;SDS011;11380;50.822;15.790;2022-09-30T18:33:54;61.57;;;55.47;;
22425;SDS011;11380;50.822;15.790;2022-09-30T18:39:02;62.20;;;56.13;;
22425;SDS011;11380;50.822;15.790;2022-09-30T18:44:10;60.90;;;54.93;;
22425;SDS011;11380;50.822;15.790;2022-09-30T18:49:17;62.27;;;56.25;;
22425;SDS011;11380;50.822;15.790;2022-09-30T18:59:27;71.47;;;63.17;;
22425;SDS011;11380;50.822;15.790;2022-09-30T19:04:36;71.00;;;63.20;;
22425;SDS011;11380;50.822;15.790;2022-09-30T19:09:42;90.77;;;72.17;;
22425;SDS011;11380;50.822;15.790;2022-09-30T19:14:49;91.50;;;69.17;;
22425;SDS011;11380;50.822;15.790;2022-09-30T19:20:04;62.90;;;56.60;;
22425;SDS011;11380;50.822;15.790;2022-09-30T19:25:11;62.17;;;55.77;;
22425;SDS011;11380;50.822;15.790;2022-09-30T19:30:21;83.60;;;67.30;;
22425;SDS011;11380;50.822;15.790;2022-09-30T19:35:32;71.43;;;62.87;;
22425;SDS011;11380;50.822;15.790;2022-09-30T19:40:39;67.40;;;59.90;;
22425;SDS011;11380;50.822;15.790;2022-09-30T19:45:52;59.03;;;53.02;;
22425;SDS011;11380;50.822;15.790;2022-09-30T19:56:12;91.63;;;67.90;;
22425;SDS011;11380;50.822;15.790;2022-09-30T20:01:22;61.83;;;55.23;;
22425;SDS011;11380;50.822;15.790;2022-09-30T20:06:30;58.60;;;52.80;;
22425;SDS011;11380;50.822;15.790;2022-09-30T20:11:38;84.73;;;68.60;;
22425;SDS011;11380;50.822;15.790;2022-09-30T20:16:44;78.17;;;68.80;;
22425;SDS011;11380;50.822;15.790;2022-09-30T20:21:53;76.93;;;67.73;;
22425;SDS011;11380;50.822;15.790;2022-09-30T20:26:59;87.62;;;70.75;;
22425;SDS011;11380;50.822;15.790;2022-09-30T20:32:06;79.32;;;67.45;;
22425;SDS011;11380;50.822;15.790;2022-09-30T20:37:14;79.53;;;68.77;;
22425;SDS011;11380;50.822;15.790;2022-09-30T20:42:19;69.67;;;62.27;;
22425;SDS011;11380;50.822;15.790;2022-09-30T20:47:25;72.67;;;63.37;;
22425;SDS011;11380;50.822;15.790;2022-09-30T20:52:31;63.47;;;56.97;;
22425;SDS011;11380;50.822;15.790;2022-09-30T20:57:38;62.57;;;56.53;;
22425;SDS011;11380;50.822;15.790;2022-09-30T21:02:47;62.43;;;56.07;;
22425;SDS011;11380;50.822;15.790;2022-09-30T21:07:56;90.50;;;67.77;;
22425;SDS011;11380;50.822;15.790;2022-09-30T21:13:07;66.80;;;59.73;;
22425;SDS011;11380;50.822;15.790;2022-09-30T21:18:14;65.47;;;58.67;;
22425;SDS011;11380;50.822;15.790;2022-09-30T21:23:20;62.17;;;56.10;;
22425;SDS011;11380;50.822;15.790;2022-09-30T21:28:26;63.30;;;56.88;;
22425;SDS011;11380;50.822;15.790;2022-09-30T21:33:33;61.13;;;55.10;;
22425;SDS011;11380;50.822;15.790;2022-09-30T21:38:40;60.03;;;54.53;;
22425;SDS011;11380;50.822;15.790;2022-09-30T21:43:45;61.23;;;55.13;;
22425;SDS011;11380;50.822;15.790;2022-09-30T21:49:01;89.17;;;66.53;;
22425;SDS011;11380;50.822;15.790;2022-09-30T21:54:11;60.20;;;54.13;;
22425;SDS011;11380;50.822;15.790;2022-09-30T21:59:17;58.23;;;52.75;;
22425;SDS011;11380;50.822;15.790;2022-09-30T22:04:23;68.35;;;60.17;;
22425;SDS011;11380;50.822;15.790;2022-09-30T22:09:29;59.17;;;53.60;;
22425;SDS011;11380;50.822;15.790;2022-09-30T22:19:41;59.17;;;53.37;;
22425;SDS011;11380;50.822;15.790;2022-09-30T22:29:51;59.23;;;53.40;;
22425;SDS011;11380;50.822;15.790;2022-09-30T22:34:57;73.93;;;63.13;;
22425;SDS011;11380;50.822;15.790;2022-09-30T22:40:21;68.43;;;60.17;;
22425;SDS011;11380;50.822;15.790;2022-09-30T22:45:27;65.72;;;58.58;;
22425;SDS011;11380;50.822;15.790;2022-09-30T22:50:34;62.38;;;55.95;;
22425;SDS011;11380;50.822;15.790;2022-09-30T22:55:40;59.23;;;53.10;;
22425;SDS011;11380;50.822;15.790;2022-09-30T23:00:55;57.80;;;52.40;;
22425;SDS011;11380;50.822;15.790;2022-09-30T23:06:02;77.23;;;62.40;;
22425;SDS011;11380;50.822;15.790;2022-09-30T23:11:09;51.03;;;46.87;;
22425;SDS011;11380;50.822;15.790;2022-09-30T23:16:16;52.53;;;48.07;;
22425;SDS011;11380;50.822;15.790;2022-09-30T23:21:21;52.63;;;48.03;;
22425;SDS011;11380;50.822;15.790;2022-09-30T23:26:28;51.85;;;47.25;;
22425;SDS011;11380;50.822;15.790;2022-09-30T23:31:33;51.53;;;47.13;;
22425;SDS011;11380;50.822;15.790;2022-09-30T23:36:39;58.87;;;53.20;;
22425;SDS011;11380;50.822;15.790;2022-09-30T23:41:45;55.03;;;49.80;;
22425;SDS011;11380;50.822;15.790;2022-09-30T23:46:51;57.17;;;51.95;;
22425;SDS011;11380;50.822;15.790;2022-09-30T23:52:15;57.93;;;52.20;;
22425;SDS011;11380;50.822;15.790;2022-09-30T23:57:21;59.75;;;54.08;;
